Time;durP1;ratioP1;P1;durP2;ratioP2;P2;SDS_P1;SDS_P2;PMS_P1;PMS_P2;Temp;Humidity;BMP_temperature;BMP_pressure;BME280_temperature;BME280_humidity;BME280_pressure;Samples;Min_cycle;Max_cycle;Signal;HPM_P1;HPM_P2
2023/02/03 00:00:14;;;;;;;25.92;12.07;;;;;;;7.07;100.00;101695.84;6276048;28;20049;-73
2023/02/03 00:03:15;;;;;;;31.60;13.35;;;;;;;7.04;100.00;101694.19;6275687;28;20056;-72
2023/02/03 00:06:16;;;;;;;21.90;11.10;;;;;;;7.01;100.00;101689.03;6276139;28;20471;-72
2023/02/03 00:09:18;;;;;;;27.48;11.18;;;;;;;7.02;100.00;101695.97;6275670;28;20048;-73
2023/02/03 00:12:21;;;;;;;21.52;10.18;;;;;;;7.08;100.00;101693.19;6276062;28;20051;-73
2023/02/03 00:15:22;;;;;;;25.92;12.02;;;;;;;7.12;100.00;101692.22;6275544;28;20056;-72
2023/02/03 00:18:23;;;;;;;25.67;12.30;;;;;;;7.18;100.00;101698.25;6275941;28;20052;-73
2023/02/03 00:21:25;;;;;;;25.52;12.43;;;;;;;7.19;100.00;101703.41;6275396;28;20049;-72
2023/02/03 00:24:26;;;;;;;23.48;9.93;;;;;;;7.15;100.00;101691.31;6273585;28;20045;-72
2023/02/03 00:27:29;;;;;;;27.13;12.13;;;;;;;7.16;100.00;101697.41;6261069;28;20057;-72
2023/02/03 00:30:31;;;;;;;24.83;11.32;;;;;;;7.12;100.00;101689.63;6275459;28;20052;-72
2023/02/03 00:33:32;;;;;;;26.48;12.82;;;;;;;7.18;100.00;101691.25;6273603;28;20060;-72
2023/02/03 00:36:34;;;;;;;19.13;9.88;;;;;;;7.13;100.00;101698.34;6275566;28;20048;-72
2023/02/03 00:39:36;;;;;;;28.48;11.68;;;;;;;7.19;100.00;101699.94;6275232;28;20053;-72
2023/02/03 00:42:38;;;;;;;26.33;11.20;;;;;;;7.18;100.00;101695.63;6275459;28;20049;-73
2023/02/03 00:45:40;;;;;;;27.55;11.02;;;;;;;7.22;100.00;101694.63;6275163;28;20052;-72
2023/02/03 00:48:41;;;;;;;23.85;10.93;;;;;;;7.26;100.00;101702.34;6275273;28;20048;-73
2023/02/03 00:51:42;;;;;;;21.88;10.82;;;;;;;7.29;100.00;101680.53;6275003;28;20355;-73
2023/02/03 00:54:44;;;;;;;21.52;10.10;;;;;;;7.24;100.00;101679.78;6273727;28;20049;-72
2023/02/03 00:57:46;;;;;;;26.08;11.35;;;;;;;7.33;100.00;101688.25;6274853;28;20343;-72
2023/02/03 01:00:48;;;;;;;26.10;11.02;;;;;;;7.29;100.00;101694.44;6275163;28;20045;-72
2023/02/03 01:03:49;;;;;;;21.42;10.32;;;;;;;7.35;100.00;101703.88;6274770;28;20048;-72
2023/02/03 01:06:55;;;;;;;22.48;10.38;;;;;;;7.33;100.00;101703.94;6275410;28;20060;-73
2023/02/03 01:09:56;;;;;;;25.33;11.68;;;;;;;7.40;100.00;101696.78;6274712;28;20140;-72
2023/02/03 01:12:59;;;;;;;21.63;9.73;;;;;;;7.35;100.00;101694.28;6275320;28;20053;-73
2023/02/03 01:16:00;;;;;;;25.52;10.48;;;;;;;7.39;100.00;101689.84;6274841;28;20045;-72
2023/02/03 01:19:01;;;;;;;20.35;10.05;;;;;;;7.40;100.00;101688.09;6274944;28;20369;-73
2023/02/03 01:22:03;;;;;;;17.40;9.85;;;;;;;7.41;100.00;101680.22;6274535;28;20427;-73
2023/02/03 01:25:04;;;;;;;20.23;9.57;;;;;;;7.35;100.00;101682.97;6274768;28;20056;-72
2023/02/03 01:28:07;;;;;;;18.35;8.57;;;;;;;7.40;100.00;101683.72;6273249;28;20056;-73
2023/02/03 01:31:11;;;;;;;22.52;9.32;;;;;;;7.39;100.00;101679.38;6274724;28;20593;-73
2023/02/03 01:34:15;;;;;;;19.02;9.63;;;;;;;7.48;100.00;101679.16;6274649;28;20055;-73
2023/02/03 01:37:16;;;;;;;24.63;9.23;;;;;;;7.48;100.00;101665.22;6274757;28;20080;-72
2023/02/03 01:40:18;;;;;;;15.65;8.13;;;;;;;7.42;100.00;101649.69;6274462;28;20130;-72
2023/02/03 01:43:32;;;;;;;21.73;8.55;;;;;;;7.43;100.00;101643.56;6274618;28;20355;-73
2023/02/03 01:46:36;;;;;;;19.92;9.13;;;;;;;7.38;100.00;101641.91;6274447;28;20056;-72
2023/02/03 01:49:40;;;;;;;18.80;8.10;;;;;;;7.35;100.00;101631.53;6274538;28;20375;-72
2023/02/03 01:52:45;;;;;;;21.13;8.20;;;;;;;7.30;100.00;101615.09;6274532;28;20458;-73
2023/02/03 01:55:49;;;;;;;16.52;8.95;;;;;;;7.35;100.00;101620.22;6273730;28;20057;-73
2023/02/03 01:58:52;;;;;;;18.45;8.82;;;;;;;7.37;100.00;101605.38;6278841;28;20052;-73
2023/02/03 02:01:54;;;;;;;16.67;7.82;;;;;;;7.37;100.00;101603.59;6278886;28;20049;-72
2023/02/03 02:05:02;;;;;;;18.60;8.18;;;;;;;7.44;100.00;101614.75;6278730;28;20052;-72
2023/02/03 02:08:04;;;;;;;19.23;8.00;;;;;;;7.49;100.00;101625.09;6278919;28;20094;-73
2023/02/03 02:11:07;;;;;;;15.10;7.97;;;;;;;7.51;100.00;101610.22;6278626;28;20048;-73
2023/02/03 02:14:10;;;;;;;20.05;8.10;;;;;;;7.43;100.00;101586.88;6278639;28;20049;-73
2023/02/03 02:17:25;;;;;;;18.38;8.98;;;;;;;7.49;100.00;101581.47;6278569;28;20060;-72
2023/02/03 02:20:57;;;;;;;15.25;7.47;;;;;;;7.47;100.00;101592.91;6278441;28;20048;-72
2023/02/03 02:24:29;;;;;;;15.75;7.60;;;;;;;7.52;100.00;101598.88;6278570;28;20055;-72
2023/02/03 02:28:10;;;;;;;16.30;6.68;;;;;;;7.56;100.00;101590.03;6277644;28;20431;-73
2023/02/03 02:31:50;;;;;;;15.85;6.88;;;;;;;7.59;100.00;101593.44;6260636;28;20061;-72
2023/02/03 02:35:02;;;;;;;14.38;7.38;;;;;;;7.52;100.00;101593.63;6277920;28;20053;-73
2023/02/03 02:38:14;;;;;;;17.05;6.68;;;;;;;7.54;100.00;101586.59;6278381;28;20451;-72
2023/02/03 02:41:22;;;;;;;20.70;6.53;;;;;;;7.61;100.00;101578.53;6277650;28;20041;-73
2023/02/03 02:44:29;;;;;;;16.40;8.13;;;;;;;7.61;100.00;101570.69;6278185;28;20053;-73
2023/02/03 02:47:31;;;;;;;11.80;4.80;;;;;;;7.65;100.00;101581.94;6277524;28;20056;-73
2023/02/03 02:50:38;;;;;;;14.95;5.65;;;;;;;7.62;100.00;101585.47;6278012;28;20566;-72
2023/02/03 02:53:44;;;;;;;13.90;5.85;;;;;;;7.59;100.00;101590.81;6277809;28;20056;-72
2023/02/03 02:56:49;;;;;;;16.98;5.43;;;;;;;7.61;100.00;101599.47;6276289;28;20060;-72
2023/02/03 02:59:50;;;;;;;13.27;5.38;;;;;;;7.66;100.00;101588.88;6277111;28;20041;-73
2023/02/03 03:02:53;;;;;;;8.48;4.85;;;;;;;7.71;100.00;101583.50;6277658;28;20049;-73
2023/02/03 03:05:59;;;;;;;9.60;5.05;;;;;;;7.73;100.00;101587.81;6277545;28;20056;-73
2023/02/03 03:09:04;;;;;;;8.45;5.68;;;;;;;7.81;100.00;101575.38;6275943;28;20061;-72
2023/02/03 03:12:10;;;;;;;12.80;5.22;;;;;;;7.79;100.00;101565.84;6277400;28;20057;-72
2023/02/03 03:15:17;;;;;;;11.95;5.10;;;;;;;7.75;100.00;101541.53;6276799;28;20354;-73
2023/02/03 03:18:23;;;;;;;14.75;5.05;;;;;;;7.79;100.00;101552.75;6272050;28;20053;-72
2023/02/03 03:21:30;;;;;;;15.20;4.75;;;;;;;7.82;100.00;101537.00;6272779;28;20048;-72
2023/02/03 03:24:37;;;;;;;9.98;4.93;;;;;;;7.78;100.00;101522.28;6261383;28;20041;-72
2023/02/03 03:31:36;;;;;;;17.63;4.50;;;;;;;7.81;100.00;101540.47;6287022;28;20342;-79
2023/02/03 03:34:39;;;;;;;8.93;4.35;;;;;;;7.82;100.00;101534.38;6290584;28;20048;-79
2023/02/03 03:37:44;;;;;;;12.00;5.13;;;;;;;7.85;100.00;101545.56;6290717;28;20339;-79
2023/02/03 03:40:51;;;;;;;8.90;4.35;;;;;;;7.93;100.00;101540.13;6265427;28;20076;-79
2023/02/03 03:43:56;;;;;;;10.23;3.90;;;;;;;7.86;100.00;101533.38;6264183;28;20051;-79
2023/02/03 03:47:06;;;;;;;9.55;4.25;;;;;;;7.83;100.00;101518.63;6260987;28;20052;-79
2023/02/03 03:50:14;;;;;;;8.10;4.15;;;;;;;7.86;100.00;101541.22;6261264;28;20045;-79
2023/02/03 03:53:17;;;;;;;10.73;4.72;;;;;;;7.88;100.00;101510.63;6262364;28;20053;-79
2023/02/03 03:56:25;;;;;;;7.45;3.63;;;;;;;7.87;100.00;101517.63;6265572;28;20056;-79
2023/02/03 03:59:35;;;;;;;5.85;3.63;;;;;;;7.86;100.00;101504.59;6263241;28;20045;-78
2023/02/03 04:02:39;;;;;;;8.20;3.47;;;;;;;7.95;100.00;101506.94;6262899;28;20049;-79
2023/02/03 04:05:42;;;;;;;9.60;4.40;;;;;;;7.89;100.00;101509.72;6262634;28;20435;-77
2023/02/03 04:08:43;;;;;;;6.80;3.90;;;;;;;7.88;100.00;101508.88;6320566;22;20052;-71
2023/02/03 04:12:04;;;;;;;11.57;3.85;;;;;;;7.92;100.00;101509.63;6315444;28;20049;-71
2023/02/03 04:15:06;;;;;;;15.18;4.45;;;;;;;7.94;100.00;101509.56;6308919;28;20047;-71
2023/02/03 04:18:07;;;;;;;7.93;4.10;;;;;;;8.01;100.00;101500.66;6302449;28;20052;-70
2023/02/03 04:21:10;;;;;;;14.48;4.38;;;;;;;7.99;100.00;101526.84;6284125;28;20338;-70
2023/02/03 04:24:11;;;;;;;6.35;3.60;;;;;;;8.07;100.00;101505.69;6289709;28;20048;-71
2023/02/03 04:27:13;;;;;;;12.70;3.42;;;;;;;8.05;100.00;101516.22;6300361;28;20052;-71
2023/02/03 04:30:17;;;;;;;6.90;3.72;;;;;;;8.00;100.00;101504.19;6299964;28;20354;-71
2023/02/03 04:33:18;;;;;;;13.30;4.57;;;;;;;8.02;100.00;101503.22;6299479;28;20121;-71
2023/02/03 04:36:21;;;;;;;7.22;3.22;;;;;;;8.01;100.00;101514.59;6300283;28;20055;-70
2023/02/03 04:39:22;;;;;;;8.27;3.67;;;;;;;7.99;100.00;101521.63;6288939;28;20063;-70
2023/02/03 04:42:24;;;;;;;15.40;3.45;;;;;;;8.08;100.00;101515.25;6275369;28;20098;-70
2023/02/03 04:45:26;;;;;;;9.80;3.70;;;;;;;7.98;100.00;101511.19;6275280;28;20048;-70
2023/02/03 04:48:27;;;;;;;8.25;3.47;;;;;;;8.09;100.00;101506.50;6274991;28;20056;-71
2023/02/03 04:51:30;;;;;;;10.50;3.92;;;;;;;8.02;100.00;101511.06;6275178;28;20045;-71
2023/02/03 04:54:31;;;;;;;7.63;3.72;;;;;;;8.04;100.00;101490.06;6275283;28;20048;-71
2023/02/03 04:57:33;;;;;;;11.00;3.67;;;;;;;8.04;100.00;101487.44;6274851;28;20060;-70
2023/02/03 05:00:34;;;;;;;8.98;3.60;;;;;;;8.04;100.00;101501.41;6275275;28;20056;-70
2023/02/03 05:03:36;;;;;;;9.35;3.25;;;;;;;7.98;100.00;101474.56;6274992;28;20377;-71
2023/02/03 05:06:39;;;;;;;7.05;3.22;;;;;;;8.03;100.00;101470.88;6291360;28;20048;-71
2023/02/03 05:09:40;;;;;;;9.05;3.53;;;;;;;8.04;100.00;101470.00;6299815;28;20045;-71
2023/02/03 05:12:42;;;;;;;6.15;3.30;;;;;;;7.96;100.00;101481.63;6300082;28;20052;-70
2023/02/03 05:15:44;;;;;;;13.10;3.97;;;;;;;7.91;100.00;101468.66;6299629;28;20049;-71
2023/02/03 05:18:45;;;;;;;16.55;3.67;;;;;;;7.82;100.00;101448.03;6299547;28;20059;-71
2023/02/03 05:21:48;;;;;;;9.63;3.30;;;;;;;7.78;100.00;101443.78;6299707;28;20044;-71
2023/02/03 05:24:49;;;;;;;11.85;4.30;;;;;;;7.72;100.00;101438.72;6299701;28;20422;-70
2023/02/03 05:27:50;;;;;;;6.97;3.50;;;;;;;7.71;100.00;101457.94;6299452;28;20056;-70
2023/02/03 05:30:52;;;;;;;7.95;3.15;;;;;;;7.73;100.00;101449.16;6279968;28;20057;-71
2023/02/03 05:33:53;;;;;;;6.32;3.28;;;;;;;7.73;100.00;101441.31;6279676;28;20053;-71
2023/02/03 05:36:56;;;;;;;10.63;4.35;;;;;;;7.68;100.00;101450.22;6279527;28;20464;-71
2023/02/03 05:41:51;;;;;;;4.90;3.17;;;;;;;7.65;100.00;101426.75;6279073;28;20045;-70
2023/02/03 05:43:18;;;;;;;6.28;3.47;;;;;;;7.67;100.00;101443.22;6279063;28;20075;-71
2023/02/03 05:46:19;;;;;;;7.68;4.00;;;;;;;7.59;100.00;101454.81;6279332;28;20144;-71
2023/02/03 05:49:22;;;;;;;7.88;3.70;;;;;;;7.58;100.00;101455.69;6279059;28;20048;-70
2023/02/03 05:52:24;;;;;;;7.97;4.22;;;;;;;7.67;100.00;101478.09;6279349;28;20049;-70
2023/02/03 05:55:26;;;;;;;14.80;4.05;;;;;;;7.61;100.00;101452.97;6278872;28;20045;-70
2023/02/03 05:58:27;;;;;;;6.80;3.38;;;;;;;7.69;100.00;101472.84;6278870;28;20059;-70
2023/02/03 06:01:29;;;;;;;5.30;3.40;;;;;;;7.70;100.00;101454.47;6279807;28;20045;-70
2023/02/03 06:04:30;;;;;;;7.07;3.22;;;;;;;7.59;100.00;101436.50;6278921;28;20355;-70
2023/02/03 06:07:33;;;;;;;11.98;4.00;;;;;;;7.55;100.00;101455.78;6278141;28;20053;-70
2023/02/03 06:10:34;;;;;;;9.15;3.45;;;;;;;7.57;100.00;101446.13;6278932;28;20430;-71
2023/02/03 06:13:36;;;;;;;7.32;3.65;;;;;;;7.48;100.00;101456.84;6278514;28;20056;-70
2023/02/03 06:16:37;;;;;;;5.47;3.50;;;;;;;7.44;100.00;101455.22;6278665;28;20049;-71
2023/02/03 06:19:38;;;;;;;8.30;3.28;;;;;;;7.40;100.00;101442.28;6278219;28;20057;-70
2023/02/03 06:22:41;;;;;;;5.43;2.88;;;;;;;7.31;100.00;101451.25;6278478;28;20041;-71
2023/02/03 06:25:42;;;;;;;5.97;3.20;;;;;;;7.25;100.00;101441.84;6278505;28;20057;-71
2023/02/03 06:28:44;;;;;;;10.55;3.40;;;;;;;7.29;100.00;101446.06;6282982;28;20048;-71
2023/02/03 06:31:45;;;;;;;9.00;4.60;;;;;;;7.30;100.00;101439.94;6303182;28;20051;-71
2023/02/03 06:34:46;;;;;;;5.32;3.58;;;;;;;7.22;100.00;101435.81;6302854;28;20048;-71
2023/02/03 06:37:49;;;;;;;8.73;3.35;;;;;;;7.24;100.00;101424.44;6302761;28;20446;-71
2023/02/03 06:40:51;;;;;;;6.65;3.92;;;;;;;7.21;100.00;101414.06;6302350;28;20044;-71
2023/02/03 06:43:52;;;;;;;7.07;3.83;;;;;;;7.23;100.00;101427.09;6302798;28;20057;-71
2023/02/03 06:46:55;;;;;;;15.10;4.32;;;;;;;7.19;100.00;101421.09;6302569;28;20112;-71
2023/02/03 06:49:56;;;;;;;13.10;4.25;;;;;;;7.20;100.00;101424.56;6302626;28;20055;-71
2023/02/03 06:52:59;;;;;;;8.02;3.40;;;;;;;7.18;100.00;101414.16;6302440;28;20457;-71
2023/02/03 06:56:00;;;;;;;7.15;2.95;;;;;;;7.19;100.00;101434.16;6302833;28;20051;-71
2023/02/03 06:59:02;;;;;;;9.65;3.45;;;;;;;7.20;100.00;101421.97;6296806;28;20041;-71
2023/02/03 07:02:03;;;;;;;8.18;3.70;;;;;;;7.20;100.00;101427.19;6277423;28;20056;-71
2023/02/03 07:05:06;;;;;;;23.27;3.58;;;;;;;7.24;100.00;101428.81;6277441;28;20049;-72
2023/02/03 07:08:08;;;;;;;10.20;4.95;;;;;;;7.22;100.00;101420.13;6276875;28;20079;-71
2023/02/03 07:11:10;;;;;;;5.40;3.15;;;;;;;7.21;100.00;101429.75;6277297;28;20056;-72
2023/02/03 07:14:11;;;;;;;11.95;3.97;;;;;;;7.21;100.00;101410.59;6277394;28;20053;-71
2023/02/03 07:17:12;;;;;;;4.80;3.00;;;;;;;7.19;100.00;101412.41;6277037;28;20056;-71
2023/02/03 07:20:14;;;;;;;10.57;3.80;;;;;;;7.27;100.00;101389.53;6276876;28;20060;-71
2023/02/03 07:23:17;;;;;;;11.98;3.60;;;;;;;7.21;100.00;101366.16;6277030;28;20056;-71
2023/02/03 07:26:21;;;;;;;8.43;4.22;;;;;;;7.32;100.00;101367.56;6276972;28;20056;-71
2023/02/03 07:29:23;;;;;;;11.30;4.53;;;;;;;7.33;100.00;101357.97;6277738;28;20084;-71
2023/02/03 07:32:24;;;;;;;6.97;4.00;;;;;;;7.41;100.00;101376.03;6276974;28;20045;-71
2023/02/03 07:35:26;;;;;;;9.90;4.93;;;;;;;7.41;100.00;101369.03;6276431;28;20053;-70
2023/02/03 07:38:28;;;;;;;10.00;4.00;;;;;;;7.48;100.00;101380.16;6277520;28;20052;-71
2023/02/03 07:41:30;;;;;;;10.73;3.33;;;;;;;7.46;100.00;101361.91;6276208;28;20056;-70
2023/02/03 07:44:31;;;;;;;4.40;3.00;;;;;;;7.49;100.00;101377.50;6276635;28;20435;-71
2023/02/03 07:47:33;;;;;;;13.18;3.70;;;;;;;7.61;100.00;101397.19;6287646;28;20047;-71
2023/02/03 07:50:34;;;;;;;10.10;3.60;;;;;;;7.63;100.00;101377.94;6288962;28;20051;-70
2023/02/03 07:53:37;;;;;;;8.77;3.58;;;;;;;7.69;100.00;101371.66;6287847;28;20040;-69
2023/02/03 07:56:38;;;;;;;6.10;3.20;;;;;;;7.69;100.00;101363.81;6298924;28;20044;-71
2023/02/03 07:59:40;;;;;;;6.32;4.20;;;;;;;7.82;100.00;101365.16;6289485;28;20051;-71
2023/02/03 08:02:41;;;;;;;5.13;3.38;;;;;;;7.84;100.00;101386.88;6288509;28;20044;-70
2023/02/03 08:05:42;;;;;;;5.22;2.95;;;;;;;7.92;100.00;101370.09;6283642;28;20356;-70
2023/02/03 08:08:45;;;;;;;3.90;2.38;;;;;;;7.98;100.00;101372.50;6281885;28;20056;-71
2023/02/03 08:11:47;;;;;;;6.32;2.83;;;;;;;7.99;100.00;101353.25;6290843;28;20048;-71
2023/02/03 08:14:48;;;;;;;6.63;2.42;;;;;;;8.05;100.00;101368.78;6288387;28;20072;-72
2023/02/03 08:17:50;;;;;;;3.83;2.35;;;;;;;8.14;100.00;101366.72;6289466;28;20060;-73
2023/02/03 08:20:51;;;;;;;5.57;2.47;;;;;;;8.16;100.00;101374.50;6290623;28;20426;-72
2023/02/03 08:23:54;;;;;;;5.32;2.00;;;;;;;8.09;100.00;101380.88;6297082;28;20045;-71
2023/02/03 08:26:56;;;;;;;5.50;1.52;;;;;;;8.23;100.00;101389.13;6292491;28;20350;-73
2023/02/03 08:29:57;;;;;;;8.32;3.28;;;;;;;8.24;100.00;101382.09;6277447;28;20056;-72
2023/02/03 08:32:58;;;;;;;7.00;2.22;;;;;;;8.21;100.00;101388.28;6287579;28;20045;-73
2023/02/03 08:36:01;;;;;;;3.80;1.77;;;;;;;8.16;100.00;101389.34;6289873;28;20051;-73
2023/02/03 08:39:04;;;;;;;4.32;1.73;;;;;;;8.11;100.00;101390.38;6289882;28;20041;-73
2023/02/03 08:42:06;;;;;;;2.30;1.63;;;;;;;8.15;100.00;101396.34;6290220;28;20048;-72
2023/02/03 08:45:08;;;;;;;3.92;1.85;;;;;;;8.22;100.00;101381.28;6285595;28;20427;-72
2023/02/03 08:48:10;;;;;;;6.82;1.55;;;;;;;8.36;100.00;101382.59;6278865;28;20056;-71
2023/02/03 08:51:13;;;;;;;5.53;1.75;;;;;;;8.34;100.00;101397.44;6290323;28;20045;-72
2023/02/03 08:54:15;;;;;;;3.60;1.80;;;;;;;8.35;100.00;101401.78;6275564;28;20060;-71
2023/02/03 08:57:17;;;;;;;5.90;1.73;;;;;;;8.39;100.00;101385.09;6275050;28;20045;-71
2023/02/03 09:00:19;;;;;;;5.88;1.67;;;;;;;8.41;100.00;101385.06;6274824;28;20084;-72
2023/02/03 09:03:21;;;;;;;7.18;1.85;;;;;;;8.42;100.00;101392.00;6296866;28;20342;-72
2023/02/03 09:06:22;;;;;;;4.05;1.40;;;;;;;8.49;100.00;101442.41;6289282;28;20043;-73
2023/02/03 09:09:25;;;;;;;3.85;1.85;;;;;;;8.54;100.00;101424.75;6291607;28;20124;-72
2023/02/03 09:12:27;;;;;;;7.35;2.22;;;;;;;8.39;100.00;101415.66;6292253;28;20331;-72
2023/02/03 09:15:28;;;;;;;3.58;1.70;;;;;;;8.40;100.00;101406.88;6291331;28;20048;-73
2023/02/03 09:18:29;;;;;;;4.85;1.23;;;;;;;8.28;100.00;101413.38;6292733;28;20049;-71
2023/02/03 09:21:31;;;;;;;6.85;2.35;;;;;;;8.32;100.00;101404.50;6293163;28;20048;-72
2023/02/03 09:24:33;;;;;;;5.03;1.30;;;;;;;8.30;100.00;101418.56;6288342;28;20354;-72
2023/02/03 09:27:35;;;;;;;6.38;1.80;;;;;;;8.22;100.00;101425.78;6279268;28;20370;-73
2023/02/03 09:30:36;;;;;;;11.40;1.80;;;;;;;8.22;100.00;101425.78;6292199;28;20048;-73
2023/02/03 09:33:38;;;;;;;6.25;1.70;;;;;;;8.21;100.00;101417.09;6299068;28;20053;-75
2023/02/03 09:36:39;;;;;;;7.80;1.65;;;;;;;8.18;100.00;101413.75;6295147;28;20354;-74
2023/02/03 09:39:42;;;;;;;3.60;1.48;;;;;;;8.09;100.00;101413.13;6300965;28;20052;-73
2023/02/03 09:42:59;;;;;;;11.57;1.52;;;;;;;8.06;100.00;101421.06;6304010;28;20044;-74
2023/02/03 09:46:03;;;;;;;3.45;1.52;;;;;;;7.96;100.00;101437.97;6304564;28;20071;-74
2023/02/03 09:49:12;;;;;;;8.30;1.75;;;;;;;7.93;100.00;101448.53;6303287;28;20350;-74
2023/02/03 09:52:15;;;;;;;;;;;;;;;7.97;100.00;101444.91;6296168;28;20369;-74
2023/02/03 09:55:26;;;;;;;7.38;1.80;;;;;;;7.94;100.00;101438.91;6283214;28;19921;-76
2023/02/03 09:58:32;;;;;;;1.00;0.90;;;;;;;7.94;100.00;101465.09;6277039;28;20059;-76
2023/02/03 10:01:43;;;;;;;3.58;1.20;;;;;;;7.89;100.00;101442.53;6279418;28;20045;-75
2023/02/03 10:04:53;;;;;;;7.03;1.73;;;;;;;7.88;100.00;101446.06;6278855;28;20049;-75
2023/02/03 10:08:03;;;;;;;4.25;1.13;;;;;;;7.88;100.00;101442.59;6278227;28;20053;-74
2023/02/03 10:11:20;;;;;;;10.57;2.63;;;;;;;7.87;100.00;101452.19;6303643;28;20055;-75
2023/02/03 10:14:38;;;;;;;8.68;1.65;;;;;;;7.85;100.00;101453.13;6303405;28;20449;-75
2023/02/03 10:17:43;;;;;;;10.23;2.30;;;;;;;7.85;100.00;101464.47;6302225;28;20048;-76
2023/02/03 10:20:47;;;;;;;7.57;1.38;;;;;;;7.86;100.00;101460.97;6303162;28;20056;-76
2023/02/03 10:23:53;;;;;;;11.70;1.98;;;;;;;7.92;100.00;101453.81;6297745;28;20052;-76
2023/02/03 10:26:57;;;;;;;16.65;2.33;;;;;;;7.97;100.00;101446.69;6277795;28;20189;-75
2023/02/03 10:30:03;;;;;;;7.75;1.70;;;;;;;7.99;100.00;101458.81;6280502;28;20060;-74
2023/02/03 10:33:10;;;;;;;13.98;2.03;;;;;;;8.00;100.00;101472.78;6302487;28;20366;-76
2023/02/03 10:36:18;;;;;;;8.15;1.70;;;;;;;8.07;100.00;101480.38;6302803;28;20052;-74
2023/02/03 10:39:27;;;;;;;6.97;1.73;;;;;;;8.08;100.00;101471.63;6302359;28;20059;-73
2023/02/03 10:45:47;;;;;;;12.25;1.55;;;;;;;8.23;100.00;101469.44;6301208;28;20075;-73
2023/02/03 10:48:49;;;;;;;7.75;2.10;;;;;;;8.19;100.00;101486.13;6301264;28;20358;-76
2023/02/03 10:51:53;;;;;;;5.40;1.60;;;;;;;8.27;100.00;101502.47;6297742;28;20436;-73
2023/02/03 10:54:55;;;;;;;9.00;2.15;;;;;;;8.31;100.00;101488.34;6278262;28;20415;-73
2023/02/03 10:58:13;;;;;;;10.63;2.47;;;;;;;8.25;100.00;101499.88;6287657;28;20053;-74
2023/02/03 11:01:17;;;;;;;3.83;2.00;;;;;;;8.33;100.00;101492.63;6286916;28;20324;-73
2023/02/03 11:04:25;;;;;;;3.10;1.13;;;;;;;8.36;100.00;101489.97;6300015;28;20059;-73
2023/02/03 11:07:30;;;;;;;12.23;2.08;;;;;;;8.41;100.00;101495.06;6293685;28;20059;-73
2023/02/03 11:10:34;;;;;;;12.80;2.13;;;;;;;8.48;100.00;101491.31;6280426;28;20067;-73
2023/02/03 11:13:37;;;;;;;8.68;1.67;;;;;;;8.55;100.00;101507.72;6277240;28;20057;-72
2023/02/03 11:16:39;;;;;;;7.03;1.35;;;;;;;8.57;100.00;101505.88;6276875;28;20057;-73
2023/02/03 11:19:45;;;;;;;17.45;1.70;;;;;;;8.59;100.00;101515.41;6277046;28;20053;-73
2023/02/03 11:22:48;;;;;;;15.93;2.03;;;;;;;8.62;100.00;101517.06;6288966;28;20045;-74
2023/02/03 11:25:50;;;;;;;12.38;2.17;;;;;;;8.63;100.00;101518.78;6298658;28;20056;-74
2023/02/03 11:28:56;;;;;;;19.52;2.00;;;;;;;8.62;100.00;101517.91;6290233;28;20048;-74
2023/02/03 11:32:00;;;;;;;11.73;1.67;;;;;;;8.76;100.00;101517.44;6293260;28;20315;-74
2023/02/03 11:35:04;;;;;;;6.95;2.60;;;;;;;8.85;100.00;101518.91;6289263;28;20052;-72
2023/02/03 11:38:29;;;;;;;8.55;1.45;;;;;;;8.85;100.00;101524.16;6287103;28;20307;-72
2023/02/03 11:41:37;;;;;;;14.10;1.65;;;;;;;8.91;100.00;101518.72;6285463;28;20049;-74
2023/02/03 11:44:39;;;;;;;14.05;1.80;;;;;;;8.95;100.00;101537.81;6289172;28;20127;-73
2023/02/03 11:47:46;;;;;;;13.73;1.73;;;;;;;8.99;100.00;101515.81;6289245;28;20049;-74
2023/02/03 11:50:56;;;;;;;8.38;1.88;;;;;;;9.01;100.00;101530.59;6290083;28;20049;-74
2023/02/03 11:54:12;;;;;;;10.82;1.95;;;;;;;8.99;100.00;101534.16;6285920;28;20048;-73
2023/02/03 11:57:29;;;;;;;9.73;2.58;;;;;;;8.99;100.00;101552.53;6293753;28;20338;-73
2023/02/03 12:00:40;;;;;;;16.40;2.15;;;;;;;9.06;100.00;101561.91;6296698;28;20158;-77
2023/02/03 12:04:08;;;;;;;12.35;1.98;;;;;;;9.10;100.00;101559.13;6300450;28;20051;-73
2023/02/03 12:07:30;;;;;;;10.57;1.73;;;;;;;9.12;100.00;101541.56;6297448;28;20052;-75
2023/02/03 12:10:41;;;;;;;9.60;1.63;;;;;;;9.09;100.00;101565.28;6289658;28;20350;-73
2023/02/03 12:14:13;;;;;;;14.55;1.70;;;;;;;9.13;100.00;101566.03;6283762;28;20056;-72
2023/02/03 12:17:50;;;;;;;13.43;2.28;;;;;;;9.11;100.00;101565.22;6287238;28;20086;-71
2023/02/03 12:21:07;;;;;;;7.50;1.10;;;;;;;9.05;100.00;101587.28;6277186;28;20056;-71
2023/02/03 12:24:20;;;;;;;10.27;1.70;;;;;;;9.01;100.00;101576.94;6288142;28;20045;-71
2023/02/03 12:27:34;;;;;;;8.20;1.35;;;;;;;9.04;100.00;101588.19;6294707;28;20351;-71
2023/02/03 12:30:41;;;;;;;12.23;1.60;;;;;;;9.02;100.00;101583.88;6283544;28;20040;-72
2023/02/03 12:33:47;;;;;;;10.38;1.98;;;;;;;8.97;100.00;101598.91;6285993;28;20453;-71
2023/02/03 12:36:56;;;;;;;7.72;1.42;;;;;;;9.01;100.00;101587.44;6287720;28;20350;-73
2023/02/03 12:39:59;;;;;;;;;;;;;;;8.99;100.00;101587.47;6284483;28;20041;-73
2023/02/03 12:43:18;;;;;;;5.45;1.50;;;;;;;8.93;100.00;101579.81;6286879;28;19920;-71
2023/02/03 12:46:22;;;;;;;;;;;;;;;8.97;99.00;101597.16;6288776;28;20044;-72
2023/02/03 12:49:35;;;;;;;9.77;1.60;;;;;;;9.00;98.48;101590.97;6286840;28;19920;-72
2023/02/03 12:52:43;;;;;;;6.70;0.70;;;;;;;9.06;100.00;101596.00;6286581;28;20056;-73
2023/02/03 12:55:49;;;;;;;13.73;2.25;;;;;;;8.99;94.76;101599.72;6286432;28;20068;-73
2023/02/03 12:58:56;;;;;;;10.85;1.63;;;;;;;9.07;94.25;101595.06;6288217;28;20056;-72
2023/02/03 13:02:00;;;;;;;15.60;1.63;;;;;;;9.10;97.81;101610.72;6285587;28;20049;-74
2023/02/03 13:05:09;;;;;;;14.57;1.58;;;;;;;9.10;94.05;101594.97;6297624;28;20370;-74
2023/02/03 13:08:22;;;;;;;10.32;1.40;;;;;;;9.14;92.11;101602.69;6287033;28;20060;-71
2023/02/03 13:11:33;;;;;;;8.93;1.95;;;;;;;9.14;93.63;101599.22;6290157;28;20040;-72
2023/02/03 13:14:39;;;;;;;5.45;1.10;;;;;;;9.09;92.27;101593.28;6288825;28;20045;-73
2023/02/03 13:17:46;;;;;;;5.85;1.33;;;;;;;9.08;92.42;101604.66;6293754;28;20055;-72
2023/02/03 13:20:47;;;;;;;12.40;1.80;;;;;;;8.97;87.76;101617.28;6290806;28;20052;-75
2023/02/03 13:23:51;;;;;;;11.68;1.48;;;;;;;8.96;90.90;101611.19;6299047;28;20048;-72
2023/02/03 13:27:05;;;;;;;10.60;1.50;;;;;;;8.96;90.43;101626.91;6299524;28;20083;-71
2023/02/03 13:30:27;;;;;;;6.35;2.08;;;;;;;8.94;92.57;101612.13;6297969;28;20052;-71
2023/02/03 13:33:46;;;;;;;8.27;1.45;;;;;;;8.91;90.73;101627.97;6299676;28;20446;-70
2023/02/03 13:37:21;;;;;;;14.05;1.63;;;;;;;8.91;91.00;101620.09;6299423;28;20072;-71
2023/02/03 13:40:40;;;;;;;7.30;1.88;;;;;;;8.95;89.66;101637.41;6299801;28;20434;-75
2023/02/03 13:43:48;;;;;;;4.90;1.38;;;;;;;8.92;89.92;101634.91;6299253;28;20056;-75
2023/02/03 13:46:51;;;;;;;10.65;1.75;;;;;;;8.85;92.85;101629.84;6299792;28;20056;-73
2023/02/03 13:49:58;;;;;;;9.38;1.23;;;;;;;8.85;92.97;101645.56;6299029;28;20051;-72
2023/02/03 13:53:02;;;;;;;11.13;1.63;;;;;;;8.82;92.35;101616.88;6302288;28;20044;-72
2023/02/03 13:56:08;;;;;;;6.80;0.95;;;;;;;8.74;91.55;101629.34;6303750;28;20053;-72
2023/02/03 13:59:30;;;;;;;8.20;1.13;;;;;;;8.81;90.16;101638.75;6303862;28;20052;-72
2023/02/03 14:02:53;;;;;;;10.85;1.60;;;;;;;8.74;90.97;101639.84;6301848;28;20346;-72
2023/02/03 14:05:56;;;;;;;5.43;1.30;;;;;;;8.73;92.61;101634.66;6303869;28;20396;-73
2023/02/03 14:08:59;;;;;;;6.70;1.42;;;;;;;8.71;92.60;101639.06;6302931;28;20056;-72
2023/02/03 14:12:40;;;;;;;3.70;1.17;;;;;;;8.72;93.92;101657.38;6303910;28;20052;-72
2023/02/03 14:15:45;;;;;;;16.40;2.53;;;;;;;8.69;90.81;101698.53;6278982;28;20064;-76
2023/02/03 14:18:46;;;;;;;11.63;1.52;;;;;;;8.66;90.79;101682.91;6296522;28;20052;-74
2023/02/03 14:21:52;;;;;;;10.10;1.65;;;;;;;8.66;89.38;101662.78;6303492;28;20358;-74
2023/02/03 14:24:57;;;;;;;15.10;2.60;;;;;;;8.58;89.26;101656.91;6292187;28;20048;-74